Terminal Aerodrome Forecast
Issued by NWS Tuscon, AZ

Home | Current Version | Previous Version | Text Only | Print | Product List | Glossary On
Versions: 1 2 3 4 5 6 7 8 9 10 11 12 13 14 15
722
FTUS45 KTWC 291136
TAFDUG
TAF
KDUG 291136Z 2912/3012 34006KT P6SM SCT090 BKN180
     FM292000 11011KT P6SM VCSH SCT080 BKN110
     FM300200 09006KT P6SM SCT080 SCT110 BKN180
     FM300600 04005KT P6SM SCT110 SCT180=

USA.gov is the U.S. government's official web portal to all federal, state and local government web resources and services.